sensor_id;sensor_type;location;lat;lon;timestamp;pressure;altitude;pressure_sealevel;temperature;humidity
72157;BME280;60035;52.122;5.406;2022-07-10T00:02:18;102977.41;;;15.31;65.52
72157;BME280;60035;52.122;5.406;2022-07-10T00:04:45;102966.25;;;15.31;65.36
72157;BME280;60035;52.122;5.406;2022-07-10T00:07:11;102967.13;;;15.30;65.91
72157;BME280;60035;52.122;5.406;2022-07-10T00:09:38;102965.38;;;15.32;65.42
72157;BME280;60035;52.122;5.406;2022-07-10T00:12:04;102962.81;;;15.29;65.51
72157;BME280;60035;52.122;5.406;2022-07-10T00:14:31;102970.53;;;15.30;65.80
72157;BME280;60035;52.122;5.406;2022-07-10T00:16:58;102966.28;;;15.28;65.79
72157;BME280;60035;52.122;5.406;2022-07-10T00:19:24;102962.78;;;15.30;65.86
72157;BME280;60035;52.122;5.406;2022-07-10T00:21:50;102967.13;;;15.30;65.91
72157;BME280;60035;52.122;5.406;2022-07-10T00:24:17;102962.00;;;15.28;65.81
72157;BME280;60035;52.122;5.406;2022-07-10T00:26:43;102962.88;;;15.26;66.08
72157;BME280;60035;52.122;5.406;2022-07-10T00:29:10;102959.50;;;15.22;66.46
72157;BME280;60035;52.122;5.406;2022-07-10T00:31:36;102957.84;;;15.16;66.75
72157;BME280;60035;52.122;5.406;2022-07-10T00:34:03;102960.47;;;15.15;67.06
72157;BME280;60035;52.122;5.406;2022-07-10T00:36:29;102957.03;;;15.13;67.31
72157;BME280;60035;52.122;5.406;2022-07-10T00:38:56;102955.34;;;15.13;67.36
72157;BME280;60035;52.122;5.406;2022-07-10T00:41:22;102958.75;;;15.14;67.17
72157;BME280;60035;52.122;5.406;2022-07-10T00:43:53;102956.25;;;15.08;67.62
72157;BME280;60035;52.122;5.406;2022-07-10T00:46:20;102955.44;;;15.04;67.45
72157;BME280;60035;52.122;5.406;2022-07-10T00:48:47;102952.03;;;15.02;67.69
72157;BME280;60035;52.122;5.406;2022-07-10T00:51:16;102956.47;;;14.94;68.02
72157;BME280;60035;52.122;5.406;2022-07-10T00:53:44;102955.63;;;14.92;68.38
72157;BME280;60035;52.122;5.406;2022-07-10T00:56:11;102955.63;;;14.92;68.26
72157;BME280;60035;52.122;5.406;2022-07-10T00:58:39;102952.31;;;14.83;68.50
72157;BME280;60035;52.122;5.406;2022-07-10T01:01:07;102953.16;;;14.82;68.51
72157;BME280;60035;52.122;5.406;2022-07-10T01:03:34;102949.72;;;14.83;68.63
72157;BME280;60035;52.122;5.406;2022-07-10T01:06:00;102941.19;;;14.78;68.66
72157;BME280;60035;52.122;5.406;2022-07-10T01:08:29;102942.84;;;14.82;68.99
72157;BME280;60035;52.122;5.406;2022-07-10T01:10:55;102935.97;;;14.81;69.06
72157;BME280;60035;52.122;5.406;2022-07-10T01:13:22;102942.09;;;14.74;69.33
72157;BME280;60035;52.122;5.406;2022-07-10T01:15:48;102938.63;;;14.77;69.24
72157;BME280;60035;52.122;5.406;2022-07-10T01:18:15;102934.34;;;14.76;69.45
72157;BME280;60035;52.122;5.406;2022-07-10T01:20:42;102934.38;;;14.74;69.10
72157;BME280;60035;52.122;5.406;2022-07-10T01:23:09;102933.50;;;14.75;69.49
72157;BME280;60035;52.122;5.406;2022-07-10T01:25:35;102936.94;;;14.74;69.36
72157;BME280;60035;52.122;5.406;2022-07-10T01:28:02;102925.88;;;14.68;69.95
72157;BME280;60035;52.122;5.406;2022-07-10T01:30:29;102917.31;;;14.62;70.10
72157;BME280;60035;52.122;5.406;2022-07-10T01:32:55;102917.38;;;14.56;70.12
72157;BME280;60035;52.122;5.406;2022-07-10T01:35:22;102919.97;;;14.55;69.82
72157;BME280;60035;52.122;5.406;2022-07-10T01:37:48;102922.50;;;14.59;69.77
72157;BME280;60035;52.122;5.406;2022-07-10T01:40:15;102916.47;;;14.59;69.97
72157;BME280;60035;52.122;5.406;2022-07-10T01:42:41;102918.22;;;14.55;70.04
72157;BME280;60035;52.122;5.406;2022-07-10T01:45:09;102919.91;;;14.58;70.19
72157;BME280;60035;52.122;5.406;2022-07-10T01:47:36;102919.03;;;14.60;69.87
72157;BME280;60035;52.122;5.406;2022-07-10T01:50:03;102920.81;;;14.57;70.26
72157;BME280;60035;52.122;5.406;2022-07-10T01:52:30;102924.22;;;14.59;69.88
72157;BME280;60035;52.122;5.406;2022-07-10T01:54:56;102921.69;;;14.56;70.44
72157;BME280;60035;52.122;5.406;2022-07-10T01:57:23;102914.78;;;14.59;70.28
72157;BME280;60035;52.122;5.406;2022-07-10T01:59:49;102923.31;;;14.64;70.32
72157;BME280;60035;52.122;5.406;2022-07-10T02:02:16;102911.25;;;14.66;70.48
72157;BME280;60035;52.122;5.406;2022-07-10T02:04:42;102912.06;;;14.72;70.13
72157;BME280;60035;52.122;5.406;2022-07-10T02:07:14;102907.72;;;14.72;70.44
72157;BME280;60035;52.122;5.406;2022-07-10T02:09:42;102911.09;;;14.77;70.02
72157;BME280;60035;52.122;5.406;2022-07-10T02:12:10;102912.78;;;14.83;70.14
72157;BME280;60035;52.122;5.406;2022-07-10T02:14:37;102917.03;;;14.84;70.02
72157;BME280;60035;52.122;5.406;2022-07-10T02:17:04;102904.91;;;14.91;70.05
72157;BME280;60035;52.122;5.406;2022-07-10T02:19:31;102898.91;;;14.90;70.13
72157;BME280;60035;52.122;5.406;2022-07-10T02:21:59;102896.31;;;14.90;69.74
72157;BME280;60035;52.122;5.406;2022-07-10T02:24:26;102898.09;;;14.87;70.26
72157;BME280;60035;52.122;5.406;2022-07-10T02:26:52;102889.53;;;14.85;70.42
72157;BME280;60035;52.122;5.406;2022-07-10T02:29:21;102896.38;;;14.86;69.87
72157;BME280;60035;52.122;5.406;2022-07-10T02:31:49;102897.25;;;14.85;70.19
72157;BME280;60035;52.122;5.406;2022-07-10T02:34:15;102899.00;;;14.82;70.16
72157;BME280;60035;52.122;5.406;2022-07-10T02:36:42;102888.75;;;14.76;70.27
72157;BME280;60035;52.122;5.406;2022-07-10T02:39:08;102895.72;;;14.73;70.61
72157;BME280;60035;52.122;5.406;2022-07-10T02:41:35;102893.09;;;14.74;70.61
72157;BME280;60035;52.122;5.406;2022-07-10T02:44:02;102895.59;;;14.82;70.60
72157;BME280;60035;52.122;5.406;2022-07-10T02:46:29;102897.25;;;14.85;70.51
72157;BME280;60035;52.122;5.406;2022-07-10T02:48:56;102891.28;;;14.81;70.67
72157;BME280;60035;52.122;5.406;2022-07-10T02:51:22;102873.22;;;14.82;70.80
72157;BME280;60035;52.122;5.406;2022-07-10T02:53:49;102882.72;;;14.79;70.91
72157;BME280;60035;52.122;5.406;2022-07-10T02:56:16;102884.50;;;14.75;71.28
72157;BME280;60035;52.122;5.406;2022-07-10T02:58:42;102892.25;;;14.75;71.44
72157;BME280;60035;52.122;5.406;2022-07-10T03:01:09;102885.38;;;14.74;71.31
72157;BME280;60035;52.122;5.406;2022-07-10T03:03:35;102889.69;;;14.72;71.57
72157;BME280;60035;52.122;5.406;2022-07-10T03:06:02;102890.47;;;14.77;71.46
72157;BME280;60035;52.122;5.406;2022-07-10T03:08:29;102887.09;;;14.75;71.53
72157;BME280;60035;52.122;5.406;2022-07-10T03:10:55;102882.81;;;14.73;71.57
72157;BME280;60035;52.122;5.406;2022-07-10T03:13:22;102894.84;;;14.74;71.70
72157;BME280;60035;52.122;5.406;2022-07-10T03:15:48;102895.66;;;14.76;71.78
72157;BME280;60035;52.122;5.406;2022-07-10T03:18:15;102894.81;;;14.75;71.75
72157;BME280;60035;52.122;5.406;2022-07-10T03:20:41;102901.66;;;14.78;71.87
72157;BME280;60035;52.122;5.406;2022-07-10T03:23:08;102899.06;;;14.76;71.87
72157;BME280;60035;52.122;5.406;2022-07-10T03:25:34;102884.44;;;14.78;71.84
72157;BME280;60035;52.122;5.406;2022-07-10T03:28:01;102891.25;;;14.82;71.83
72157;BME280;60035;52.122;5.406;2022-07-10T03:30:27;102889.53;;;14.85;71.80
72157;BME280;60035;52.122;5.406;2022-07-10T03:32:54;102891.22;;;14.86;71.91
72157;BME280;60035;52.122;5.406;2022-07-10T03:35:20;102895.50;;;14.87;71.72
72157;BME280;60035;52.122;5.406;2022-07-10T03:37:46;102884.31;;;14.88;71.66
72157;BME280;60035;52.122;5.406;2022-07-10T03:40:13;102877.38;;;14.93;71.76
72157;BME280;60035;52.122;5.406;2022-07-10T03:42:39;102879.09;;;14.92;71.72
72157;BME280;60035;52.122;5.406;2022-07-10T03:45:06;102885.03;;;14.96;71.40
72157;BME280;60035;52.122;5.406;2022-07-10T03:47:33;102875.59;;;14.96;71.53
72157;BME280;60035;52.122;5.406;2022-07-10T03:49:59;102885.88;;;14.98;71.62
72157;BME280;60035;52.122;5.406;2022-07-10T03:52:26;102878.94;;;15.03;71.30
72157;BME280;60035;52.122;5.406;2022-07-10T03:54:54;102885.78;;;15.06;71.17
72157;BME280;60035;52.122;5.406;2022-07-10T03:57:20;102880.59;;;15.07;71.13
72157;BME280;60035;52.122;5.406;2022-07-10T04:00:06;102875.34;;;15.13;71.13
72157;BME280;60035;52.122;5.406;2022-07-10T04:02:33;102873.53;;;15.17;70.61
72157;BME280;60035;52.122;5.406;2022-07-10T04:04:59;102867.47;;;15.20;70.71
72157;BME280;60035;52.122;5.406;2022-07-10T04:07:26;102867.44;;;15.21;70.72
72157;BME280;60035;52.122;5.406;2022-07-10T04:09:52;102876.00;;;15.25;70.72
72157;BME280;60035;52.122;5.406;2022-07-10T04:12:19;102878.59;;;15.25;70.80
72157;BME280;60035;52.122;5.406;2022-07-10T04:14:45;102873.38;;;15.26;70.54
72157;BME280;60035;52.122;5.406;2022-07-10T04:17:13;102869.91;;;15.29;70.28
72157;BME280;60035;52.122;5.406;2022-07-10T04:19:39;102871.56;;;15.33;70.28
72157;BME280;60035;52.122;5.406;2022-07-10T04:22:06;102874.09;;;15.35;70.25
72157;BME280;60035;52.122;5.406;2022-07-10T04:24:32;102876.66;;;15.38;70.19
72157;BME280;60035;52.122;5.406;2022-07-10T04:26:59;102864.59;;;15.38;70.25
72157;BME280;60035;52.122;5.406;2022-07-10T04:29:25;102858.56;;;15.39;70.14
72157;BME280;60035;52.122;5.406;2022-07-10T04:31:52;102862.88;;;15.39;70.10
72157;BME280;60035;52.122;5.406;2022-07-10T04:34:19;102868.94;;;15.35;70.28
72157;BME280;60035;52.122;5.406;2022-07-10T04:36:45;102869.84;;;15.33;70.27
72157;BME280;60035;52.122;5.406;2022-07-10T04:39:12;102863.81;;;15.33;70.43
72157;BME280;60035;52.122;5.406;2022-07-10T04:41:38;102864.75;;;15.29;70.55
72157;BME280;60035;52.122;5.406;2022-07-10T04:44:05;102871.56;;;15.33;70.72
72157;BME280;60035;52.122;5.406;2022-07-10T04:46:31;102871.47;;;15.39;70.41
72157;BME280;60035;52.122;5.406;2022-07-10T04:48:58;102869.66;;;15.44;70.60
72157;BME280;60035;52.122;5.406;2022-07-10T04:51:24;102863.56;;;15.48;70.44
72157;BME280;60035;52.122;5.406;2022-07-10T04:53:51;102863.50;;;15.53;70.57
72157;BME280;60035;52.122;5.406;2022-07-10T04:56:17;102870.28;;;15.57;70.64
72157;BME280;60035;52.122;5.406;2022-07-10T04:58:44;102865.13;;;15.57;70.60
72157;BME280;60035;52.122;5.406;2022-07-10T05:01:17;102862.38;;;15.65;70.60
72157;BME280;60035;52.122;5.406;2022-07-10T05:03:44;102863.22;;;15.67;70.65
72157;BME280;60035;52.122;5.406;2022-07-10T05:06:10;102861.41;;;15.72;70.69
72157;BME280;60035;52.122;5.406;2022-07-10T05:08:37;102864.78;;;15.74;70.67
72157;BME280;60035;52.122;5.406;2022-07-10T05:11:04;102869.88;;;15.80;70.52
72157;BME280;60035;52.122;5.406;2022-07-10T05:13:30;102874.84;;;15.91;70.62
72157;BME280;60035;52.122;5.406;2022-07-10T05:15:57;102865.97;;;16.06;70.40
72157;BME280;60035;52.122;5.406;2022-07-10T05:18:24;102871.88;;;16.11;70.10
72157;BME280;60035;52.122;5.406;2022-07-10T05:20:50;102866.72;;;16.11;70.41
72157;BME280;60035;52.122;5.406;2022-07-10T05:23:17;102871.78;;;16.16;70.39
72157;BME280;60035;52.122;5.406;2022-07-10T05:25:43;102876.75;;;16.25;70.10
72157;BME280;60035;52.122;5.406;2022-07-10T05:28:10;102868.19;;;16.23;69.84
72157;BME280;60035;52.122;5.406;2022-07-10T05:30:39;102873.31;;;16.26;70.13
72157;BME280;60035;52.122;5.406;2022-07-10T05:33:05;102873.31;;;16.26;70.01
72157;BME280;60035;52.122;5.406;2022-07-10T05:35:32;102875.03;;;16.24;70.16
72157;BME280;60035;52.122;5.406;2022-07-10T05:37:59;102879.38;;;16.24;70.11
72157;BME280;60035;52.122;5.406;2022-07-10T05:40:26;102874.09;;;16.28;69.98
72157;BME280;60035;52.122;5.406;2022-07-10T05:42:52;102877.47;;;16.32;70.13
72157;BME280;60035;52.122;5.406;2022-07-10T05:45:19;102869.81;;;16.29;69.84
72157;BME280;60035;52.122;5.406;2022-07-10T05:47:45;102871.50;;;16.28;69.95
72157;BME280;60035;52.122;5.406;2022-07-10T05:50:12;102866.41;;;16.25;70.02
72157;BME280;60035;52.122;5.406;2022-07-10T05:52:39;102868.97;;;16.27;70.23
72157;BME280;60035;52.122;5.406;2022-07-10T05:55:06;102869.03;;;16.24;70.44
72157;BME280;60035;52.122;5.406;2022-07-10T05:57:34;102875.00;;;16.26;70.46
72157;BME280;60035;52.122;5.406;2022-07-10T06:00:03;102868.94;;;16.28;70.66
72157;BME280;60035;52.122;5.406;2022-07-10T06:02:31;102873.13;;;16.34;70.40
72157;BME280;60035;52.122;5.406;2022-07-10T06:04:58;102868.72;;;16.38;70.26
72157;BME280;60035;52.122;5.406;2022-07-10T06:07:25;102869.56;;;16.40;70.35
72157;BME280;60035;52.122;5.406;2022-07-10T06:09:51;102873.81;;;16.42;70.41
72157;BME280;60035;52.122;5.406;2022-07-10T06:12:17;102873.53;;;16.55;70.27
72157;BME280;60035;52.122;5.406;2022-07-10T06:14:44;102874.25;;;16.63;69.80
72157;BME280;60035;52.122;5.406;2022-07-10T06:17:11;102874.03;;;16.72;69.87
72157;BME280;60035;52.122;5.406;2022-07-10T06:19:37;102872.88;;;16.84;69.40
72157;BME280;60035;52.122;5.406;2022-07-10T06:22:04;102871.81;;;16.94;68.73
72157;BME280;60035;52.122;5.406;2022-07-10T06:24:49;102871.75;;;16.96;69.02
72157;BME280;60035;52.122;5.406;2022-07-10T06:27:16;102881.94;;;17.04;68.90
72157;BME280;60035;52.122;5.406;2022-07-10T06:29:42;102880.88;;;17.12;68.67
72157;BME280;60035;52.122;5.406;2022-07-10T06:32:09;102884.03;;;17.24;68.59
72157;BME280;60035;52.122;5.406;2022-07-10T06:34:36;102877.00;;;17.29;68.38
72157;BME280;60035;52.122;5.406;2022-07-10T06:37:03;102869.97;;;17.34;68.20
72157;BME280;60035;52.122;5.406;2022-07-10T06:39:33;102882.13;;;17.32;67.71
72157;BME280;60035;52.122;5.406;2022-07-10T06:42:04;102884.03;;;17.24;67.66
72157;BME280;60035;52.122;5.406;2022-07-10T06:44:31;102873.13;;;17.12;67.84
72157;BME280;60035;52.122;5.406;2022-07-10T06:46:58;102880.88;;;17.12;68.22
72157;BME280;60035;52.122;5.406;2022-07-10T06:49:45;102885.94;;;17.17;67.91
72157;BME280;60035;52.122;5.406;2022-07-10T06:52:12;102873.91;;;17.16;68.10
72157;BME280;60035;52.122;5.406;2022-07-10T06:54:39;102878.84;;;17.24;68.07
72157;BME280;60035;52.122;5.406;2022-07-10T06:57:06;102878.84;;;17.24;67.76
72157;BME280;60035;52.122;5.406;2022-07-10T06:59:33;102870.34;;;17.20;68.02
72157;BME280;60035;52.122;5.406;2022-07-10T07:02:00;102871.97;;;17.24;67.53
72157;BME280;60035;52.122;5.406;2022-07-10T07:04:27;102872.75;;;17.28;67.87
72157;BME280;60035;52.122;5.406;2022-07-10T07:06:54;102880.34;;;17.34;67.79
72157;BME280;60035;52.122;5.406;2022-07-10T07:09:20;102877.69;;;17.36;67.51
72157;BME280;60035;52.122;5.406;2022-07-10T07:11:47;102877.69;;;17.36;67.48
72157;BME280;60035;52.122;5.406;2022-07-10T07:14:13;102874.19;;;17.38;67.38
72157;BME280;60035;52.122;5.406;2022-07-10T07:16:40;102879.50;;;17.34;67.19
72157;BME280;60035;52.122;5.406;2022-07-10T07:19:12;102882.19;;;17.30;67.45
72157;BME280;60035;52.122;5.406;2022-07-10T07:21:44;102885.31;;;17.42;67.39
72157;BME280;60035;52.122;5.406;2022-07-10T07:24:29;102878.19;;;17.52;67.16
72157;BME280;60035;52.122;5.406;2022-07-10T07:26:56;102882.44;;;17.53;67.06
72157;BME280;60035;52.122;5.406;2022-07-10T07:29:22;102878.88;;;17.57;66.96
72157;BME280;60035;52.122;5.406;2022-07-10T07:31:48;102878.38;;;17.75;66.86
72157;BME280;60035;52.122;5.406;2022-07-10T07:34:15;102876.97;;;17.98;66.01
72157;BME280;60035;52.122;5.406;2022-07-10T07:36:41;102875.13;;;18.02;65.68
72157;BME280;60035;52.122;5.406;2022-07-10T07:39:08;102873.13;;;18.11;64.71
72157;BME280;60035;52.122;5.406;2022-07-10T07:41:34;102874.19;;;18.04;64.57
72157;BME280;60035;52.122;5.406;2022-07-10T07:44:01;102883.75;;;18.02;64.01
72157;BME280;60035;52.122;5.406;2022-07-10T07:46:27;102882.94;;;18.00;64.76
72157;BME280;60035;52.122;5.406;2022-07-10T07:48:54;102878.31;;;18.11;64.50
72157;BME280;60035;52.122;5.406;2022-07-10T07:51:20;102873.59;;;18.24;64.24
72157;BME280;60035;52.122;5.406;2022-07-10T07:53:47;102878.50;;;18.34;63.34
72157;BME280;60035;52.122;5.406;2022-07-10T07:56:13;102881.25;;;18.29;63.34
72157;BME280;60035;52.122;5.406;2022-07-10T07:58:40;102884.13;;;18.20;63.33
72157;BME280;60035;52.122;5.406;2022-07-10T08:01:07;102874.63;;;18.19;63.90
72157;BME280;60035;52.122;5.406;2022-07-10T08:03:34;102883.50;;;18.11;64.04
72157;BME280;60035;52.122;5.406;2022-07-10T08:06:20;102887.91;;;18.08;64.08
72157;BME280;60035;52.122;5.406;2022-07-10T08:08:47;102887.81;;;18.11;64.27
72157;BME280;60035;52.122;5.406;2022-07-10T08:11:13;102900.72;;;18.14;64.06
72157;BME280;60035;52.122;5.406;2022-07-10T08:13:39;102885.09;;;18.15;64.32
72157;BME280;60035;52.122;5.406;2022-07-10T08:16:06;102893.59;;;18.21;63.97
72157;BME280;60035;52.122;5.406;2022-07-10T08:18:34;102888.59;;;18.14;63.83
72157;BME280;60035;52.122;5.406;2022-07-10T08:21:01;102887.44;;;18.25;64.21
72157;BME280;60035;52.122;5.406;2022-07-10T08:23:28;102881.97;;;18.34;64.39
72157;BME280;60035;52.122;5.406;2022-07-10T08:25:54;102879.59;;;18.55;63.89
72157;BME280;60035;52.122;5.406;2022-07-10T08:28:21;102877.06;;;18.53;63.16
72157;BME280;60035;52.122;5.406;2022-07-10T08:30:50;102877.28;;;18.47;63.26
72157;BME280;60035;52.122;5.406;2022-07-10T08:33:16;102869.44;;;18.48;63.34
72157;BME280;60035;52.122;5.406;2022-07-10T08:35:43;102875.28;;;18.55;63.47
72157;BME280;60035;52.122;5.406;2022-07-10T08:38:09;102876.19;;;18.54;62.67
72157;BME280;60035;52.122;5.406;2022-07-10T08:40:37;102881.84;;;18.67;62.80
72157;BME280;60035;52.122;5.406;2022-07-10T08:43:04;102869.47;;;18.75;62.51
72157;BME280;60035;52.122;5.406;2022-07-10T08:45:32;102876.06;;;18.86;61.97
72157;BME280;60035;52.122;5.406;2022-07-10T08:48:06;102873.09;;;18.98;61.59
72157;BME280;60035;52.122;5.406;2022-07-10T08:50:37;102874.78;;;19.26;61.68
72157;BME280;60035;52.122;5.406;2022-07-10T08:53:08;102871.72;;;19.40;60.45
72157;BME280;60035;52.122;5.406;2022-07-10T08:55:36;102864.25;;;19.56;59.75
72157;BME280;60035;52.122;5.406;2022-07-10T08:58:03;102870.97;;;19.61;59.63
72157;BME280;60035;52.122;5.406;2022-07-10T09:00:33;102867.91;;;19.74;59.41
72157;BME280;60035;52.122;5.406;2022-07-10T09:02:59;102862.28;;;19.88;58.41
72157;BME280;60035;52.122;5.406;2022-07-10T09:05:26;102857.81;;;19.91;58.35
72157;BME280;60035;52.122;5.406;2022-07-10T09:07:53;102865.34;;;19.99;57.92
72157;BME280;60035;52.122;5.406;2022-07-10T09:10:24;102871.25;;;20.03;58.18
72157;BME280;60035;52.122;5.406;2022-07-10T09:15:18;102856.44;;;20.05;58.01
72157;BME280;60035;52.122;5.406;2022-07-10T09:18:02;102855.00;;;20.20;57.93
72157;BME280;60035;52.122;5.406;2022-07-10T09:20:37;102865.28;;;20.23;57.66
72157;BME280;60035;52.122;5.406;2022-07-10T09:23:20;102865.28;;;20.23;57.44
72157;BME280;60035;52.122;5.406;2022-07-10T09:25:49;102857.97;;;20.10;57.80
72157;BME280;60035;52.122;5.406;2022-07-10T09:28:18;102853.97;;;20.24;57.67
72157;BME280;60035;52.122;5.406;2022-07-10T09:30:46;102856.00;;;20.39;56.62
72157;BME280;60035;52.122;5.406;2022-07-10T09:41:29;102849.16;;;20.37;57.59
72157;BME280;60035;52.122;5.406;2022-07-10T09:44:04;102847.66;;;20.31;56.96
72157;BME280;60035;52.122;5.406;2022-07-10T09:46:34;102842.88;;;20.42;56.99
72157;BME280;60035;52.122;5.406;2022-07-10T09:51:30;102831.97;;;20.77;56.18
72157;BME280;60035;52.122;5.406;2022-07-10T09:54:00;102827.59;;;21.00;55.70
72157;BME280;60035;52.122;5.406;2022-07-10T09:56:32;102830.06;;;21.03;55.15
72157;BME280;60035;52.122;5.406;2022-07-10T09:59:00;102819.44;;;20.87;55.83
72157;BME280;60035;52.122;5.406;2022-07-10T10:01:27;102827.63;;;20.77;56.59
72157;BME280;60035;52.122;5.406;2022-07-10T10:03:58;102831.66;;;20.85;56.76
72157;BME280;60035;52.122;5.406;2022-07-10T10:06:27;102832.31;;;20.90;55.83
72157;BME280;60035;52.122;5.406;2022-07-10T10:09:04;102817.09;;;21.01;55.26
72157;BME280;60035;52.122;5.406;2022-07-10T10:11:35;102818.19;;;21.16;55.53
72157;BME280;60035;52.122;5.406;2022-07-10T10:14:03;102826.94;;;21.15;56.03
72157;BME280;60035;52.122;5.406;2022-07-10T10:16:29;102829.16;;;21.04;55.56
72157;BME280;60035;52.122;5.406;2022-07-10T10:19:03;102831.19;;;20.97;55.32
72157;BME280;60035;52.122;5.406;2022-07-10T10:21:48;102826.06;;;20.94;56.14
72157;BME280;60035;52.122;5.406;2022-07-10T10:24:16;102834.84;;;20.91;55.29
72157;BME280;60035;52.122;5.406;2022-07-10T10:26:43;102829.34;;;20.78;55.92
72157;BME280;60035;52.122;5.406;2022-07-10T10:29:10;102836.41;;;20.95;56.33
72157;BME280;60035;52.122;5.406;2022-07-10T10:31:37;102838.31;;;21.12;55.67
72157;BME280;60035;52.122;5.406;2022-07-10T10:34:05;102837.28;;;21.17;55.19
72157;BME280;60035;52.122;5.406;2022-07-10T10:39:17;102829.13;;;21.45;54.94
72157;BME280;60035;52.122;5.406;2022-07-10T10:49:24;102810.88;;;21.85;53.96
72157;BME280;60035;52.122;5.406;2022-07-10T10:54:27;102824.59;;;21.69;53.88
72157;BME280;60035;52.122;5.406;2022-07-10T10:57:16;102826.97;;;21.55;54.00
72157;BME280;60035;52.122;5.406;2022-07-10T10:59:47;102820.66;;;21.40;54.82
72157;BME280;60035;52.122;5.406;2022-07-10T11:02:22;102824.44;;;21.33;55.15
72157;BME280;60035;52.122;5.406;2022-07-10T11:04:51;102820.63;;;21.21;54.93
72157;BME280;60035;52.122;5.406;2022-07-10T11:10:35;102820.28;;;21.08;54.86
72157;BME280;60035;52.122;5.406;2022-07-10T11:15:37;102823.63;;;21.11;55.60
72157;BME280;60035;52.122;5.406;2022-07-10T11:18:12;102827.50;;;21.22;54.94
72157;BME280;60035;52.122;5.406;2022-07-10T11:20:47;102810.72;;;21.29;55.13
72157;BME280;60035;52.122;5.406;2022-07-10T11:26:11;102814.22;;;21.49;54.64
72157;BME280;60035;52.122;5.406;2022-07-10T11:28:52;102822.91;;;21.68;54.83
72157;BME280;60035;52.122;5.406;2022-07-10T11:31:24;102820.28;;;21.68;53.04
72157;BME280;60035;52.122;5.406;2022-07-10T11:33:52;102822.88;;;21.70;53.37
72157;BME280;60035;52.122;5.406;2022-07-10T11:36:28;102817.28;;;21.77;53.31
72157;BME280;60035;52.122;5.406;2022-07-10T11:38:58;102820.59;;;21.81;52.49
72157;BME280;60035;52.122;5.406;2022-07-10T11:41:25;102807.47;;;21.83;51.67
72157;BME280;60035;52.122;5.406;2022-07-10T11:43:53;102816.44;;;21.77;52.49
72157;BME280;60035;52.122;5.406;2022-07-10T11:46:23;102810.31;;;21.78;52.49
72157;BME280;60035;52.122;5.406;2022-07-10T11:48:58;102817.66;;;21.70;52.24
72157;BME280;60035;52.122;5.406;2022-07-10T11:51:30;102813.94;;;21.55;52.70
72157;BME280;60035;52.122;5.406;2022-07-10T11:56:25;102806.44;;;21.47;52.25
72157;BME280;60035;52.122;5.406;2022-07-10T11:58:56;102803.78;;;21.49;53.14
72157;BME280;60035;52.122;5.406;2022-07-10T12:01:23;102803.16;;;21.82;52.17
72157;BME280;60035;52.122;5.406;2022-07-10T12:04:04;102789.16;;;22.03;51.58
72157;BME280;60035;52.122;5.406;2022-07-10T12:06:33;102789.81;;;22.26;51.99
72157;BME280;60035;52.122;5.406;2022-07-10T12:09:08;102780.66;;;22.71;50.91
72157;BME280;60035;52.122;5.406;2022-07-10T12:11:35;102785.56;;;22.95;49.70
72157;BME280;60035;52.122;5.406;2022-07-10T12:14:10;102780.03;;;23.19;49.86
72157;BME280;60035;52.122;5.406;2022-07-10T12:16:37;102791.00;;;23.25;47.78
72157;BME280;60035;52.122;5.406;2022-07-10T12:19:06;102790.88;;;22.93;46.99
72157;BME280;60035;52.122;5.406;2022-07-10T12:21:32;102789.56;;;22.85;47.94
72157;BME280;60035;52.122;5.406;2022-07-10T12:23:59;102787.94;;;22.82;48.08
72157;BME280;60035;52.122;5.406;2022-07-10T12:26:35;102782.81;;;22.63;48.78
72157;BME280;60035;52.122;5.406;2022-07-10T12:29:03;102785.44;;;22.63;47.92
72157;BME280;60035;52.122;5.406;2022-07-10T12:31:32;102790.41;;;22.50;47.48
72157;BME280;60035;52.122;5.406;2022-07-10T12:34:01;102786.25;;;22.46;48.16
72157;BME280;60035;52.122;5.406;2022-07-10T12:39:14;102786.78;;;23.23;46.48
72157;BME280;60035;52.122;5.406;2022-07-10T12:44:42;102788.31;;;23.27;47.16
72157;BME280;60035;52.122;5.406;2022-07-10T12:47:10;102789.03;;;23.78;46.16
72157;BME280;60035;52.122;5.406;2022-07-10T12:49:56;102786.22;;;23.99;44.49
72157;BME280;60035;52.122;5.406;2022-07-10T12:52:30;102781.97;;;24.12;44.52
72157;BME280;60035;52.122;5.406;2022-07-10T12:55:16;102787.22;;;23.97;44.02
72157;BME280;60035;52.122;5.406;2022-07-10T12:57:53;102789.25;;;23.91;44.52
72157;BME280;60035;52.122;5.406;2022-07-10T13:00:22;102774.22;;;23.63;44.37
72157;BME280;60035;52.122;5.406;2022-07-10T13:02:56;102776.38;;;23.55;45.44
72157;BME280;60035;52.122;5.406;2022-07-10T13:05:40;102784.16;;;23.56;45.43
72157;BME280;60035;52.122;5.406;2022-07-10T13:10:40;102780.38;;;23.94;44.49
72157;BME280;60035;52.122;5.406;2022-07-10T13:13:07;102771.31;;;24.16;44.02
72157;BME280;60035;52.122;5.406;2022-07-10T13:15:34;102771.81;;;24.53;42.97
72157;BME280;60035;52.122;5.406;2022-07-10T13:18:07;102770.22;;;24.66;42.38
72157;BME280;60035;52.122;5.406;2022-07-10T13:20:34;102766.31;;;24.57;42.94
72157;BME280;60035;52.122;5.406;2022-07-10T13:23:00;102758.00;;;24.51;43.05
72157;BME280;60035;52.122;5.406;2022-07-10T13:25:27;102761.25;;;24.40;43.17
72157;BME280;60035;52.122;5.406;2022-07-10T13:27:54;102759.69;;;24.52;44.26
72157;BME280;60035;52.122;5.406;2022-07-10T13:30:20;102765.56;;;24.86;43.20
72157;BME280;60035;52.122;5.406;2022-07-10T13:32:47;102768.44;;;24.67;42.60
72157;BME280;60035;52.122;5.406;2022-07-10T13:35:13;102760.81;;;24.62;43.35
72157;BME280;60035;52.122;5.406;2022-07-10T13:37:40;102757.66;;;24.71;42.91
72157;BME280;60035;52.122;5.406;2022-07-10T13:40:07;102762.75;;;24.74;42.93
72157;BME280;60035;52.122;5.406;2022-07-10T13:42:34;102759.38;;;24.72;43.71